Grand Ridge, Illinois
Current Conditions -  °F | °C
As of 8:15 AM on Thursday 27 Nov 2014 (Local Time) from KVYS Reporting Station
Overcast Overcast  
Wind Chill: 16°   Ceiling: 2900
Heat Index: 26°   Visibility: 7mi
Dew Point: 22°   Wind: 9mph
Humidity: 86%   Direction: 300°WNW
Pressure: 30.37"   Gusts: NA
Location:  41.24°N, 88.83°W
Report Text: KVYS 271415Z AUTO 30008KT 7SM OVC029 M03/M06 A3037 RMK AO2 T10351056
Loading
Personal Weather Stations






























Interactive Weather Map New forecast layout! Learn more

10-Day Weather Forecast

Advertisements
Track Severe Weather on mobile